« Back
NWS Peachtree City, Ga » Text Product » CSG Terminal Aerodrome Forecast


Printer-friendly Version
Current Version              Previous Versions:   1  2  3  4  5  6  7  8  9  

Terminal Aerodrome Forecast

668
FTUS42 KFFC 241700
TAFCSG
TAF
KCSG 241740Z 2418/2518 19005KT P6SM SCT050
     FM250300 20004KT P6SM BKN045
     FM251200 23006KT P6SM BKN025
     FM251500 26010G18KT P6SM SCT040=

USA.gov is the U.S. government's official web portal to all federal, state and local government web resources and services.